createdAt,value
2017-08-14T00:00:13.483Z,0
2017-08-14T00:01:13.276Z,0
2017-08-14T00:02:12.977Z,0
2017-08-14T00:03:14.120Z,0
2017-08-14T00:04:13.817Z,0
2017-08-14T00:05:13.964Z,0
2017-08-14T00:06:13.994Z,0
2017-08-14T00:07:13.921Z,0
2017-08-14T00:08:14.275Z,0
2017-08-14T00:09:14.301Z,0
2017-08-14T00:10:14.070Z,0
2017-08-14T00:11:14.379Z,0
2017-08-14T00:12:14.406Z,0
2017-08-14T00:13:14.121Z,0
2017-08-14T00:14:14.264Z,0
2017-08-14T00:15:15.667Z,0
2017-08-14T00:16:15.684Z,0
2017-08-14T00:17:15.763Z,0
2017-08-14T00:18:15.757Z,0
2017-08-14T00:19:15.798Z,0
2017-08-14T00:20:15.820Z,0
2017-08-14T00:21:15.856Z,0
2017-08-14T00:22:15.569Z,0
2017-08-14T00:23:15.938Z,0
2017-08-14T00:24:15.644Z,0
2017-08-14T00:25:16.009Z,0
2017-08-14T00:26:15.694Z,0
2017-08-14T00:27:15.762Z,0
2017-08-14T00:28:15.781Z,0
2017-08-14T00:29:15.820Z,0
2017-08-14T00:30:16.172Z,0
2017-08-14T00:31:15.893Z,0
2017-08-14T00:32:15.900Z,0
2017-08-14T00:33:16.379Z,0
2017-08-14T00:34:16.714Z,0
2017-08-14T00:35:16.738Z,0
2017-08-14T00:36:16.781Z,0
2017-08-14T00:37:16.807Z,0
2017-08-14T00:38:16.848Z,0
2017-08-14T00:39:16.882Z,0
2017-08-14T00:40:16.591Z,0
2017-08-14T00:41:17.376Z,0
2017-08-14T00:42:17.091Z,0
2017-08-14T00:43:16.819Z,0
2017-08-14T00:44:16.976Z,0
2017-08-14T00:45:18.121Z,0
2017-08-14T00:46:18.141Z,0
2017-08-14T00:47:17.542Z,0
2017-08-14T00:48:18.644Z,0
2017-08-14T00:49:18.684Z,0
2017-08-14T00:50:18.382Z,0
2017-08-14T00:51:18.414Z,0
2017-08-14T00:52:17.850Z,0
2017-08-14T00:53:18.968Z,0
2017-08-14T00:54:18.997Z,0
2017-08-14T00:55:18.722Z,0
2017-08-14T00:56:18.776Z,0
2017-08-14T00:57:18.783Z,0
2017-08-14T00:58:19.578Z,0
2017-08-14T00:59:19.282Z,0
2017-08-14T01:00:19.640Z,0
2017-08-14T01:01:19.012Z,0
2017-08-14T01:02:19.834Z,0
2017-08-14T01:03:19.530Z,0
2017-08-14T01:04:19.885Z,0
2017-08-14T01:05:19.303Z,0
2017-08-14T01:06:20.421Z,0
2017-08-14T01:07:20.460Z,0
2017-08-14T01:08:20.494Z,0
2017-08-14T01:09:20.516Z,0
2017-08-14T01:10:20.558Z,0
2017-08-14T01:11:20.285Z,0
2017-08-14T01:12:20.312Z,0
2017-08-14T01:13:20.674Z,0
2017-08-14T01:14:20.684Z,0
2017-08-14T01:15:20.399Z,0
2017-08-14T01:16:21.189Z,0
2017-08-14T01:17:21.210Z,0
2017-08-14T01:18:21.246Z,0
2017-08-14T01:19:20.963Z,0
2017-08-14T01:20:23.294Z,0
2017-08-14T01:21:21.772Z,0
2017-08-14T01:22:21.813Z,0
2017-08-14T01:23:22.162Z,0
2017-08-14T01:24:22.203Z,0
2017-08-14T01:25:21.906Z,0
2017-08-14T01:26:22.385Z,0
2017-08-14T01:27:22.396Z,0
2017-08-14T01:28:22.143Z,0
2017-08-14T01:29:22.621Z,0
2017-08-14T01:30:22.942Z,0
2017-08-14T01:31:22.357Z,0
2017-08-14T01:32:22.399Z,0
2017-08-14T01:33:23.204Z,0
2017-08-14T01:34:23.536Z,0
2017-08-14T01:35:22.974Z,0
2017-08-14T01:36:24.084Z,0
2017-08-14T01:37:23.805Z,0
2017-08-14T01:38:23.843Z,0
2017-08-14T01:39:23.870Z,0
2017-08-14T01:40:24.369Z,0
2017-08-14T01:41:24.833Z,0
2017-08-14T01:42:24.880Z,0
2017-08-14T01:43:24.891Z,0
2017-08-14T01:44:25.245Z,0
2017-08-14T01:45:24.975Z,0
2017-08-14T01:46:25.327Z,0
2017-08-14T01:47:25.337Z,0
2017-08-14T01:48:24.762Z,0
2017-08-14T01:49:24.923Z,0
2017-08-14T01:50:25.913Z,0
2017-08-14T01:51:25.632Z,0
2017-08-14T01:52:26.005Z,0
2017-08-14T01:53:26.008Z,0
2017-08-14T01:54:25.095Z,0
2017-08-14T01:55:26.091Z,0
2017-08-14T01:56:26.121Z,0
2017-08-14T01:57:26.141Z,0
2017-08-14T01:58:25.878Z,0
2017-08-14T01:59:25.588Z,0
2017-08-14T02:00:26.707Z,0
2017-08-14T02:01:26.202Z,0
2017-08-14T02:02:26.839Z,0
2017-08-14T02:03:26.805Z,0
2017-08-14T02:04:26.856Z,0
2017-08-14T02:05:26.557Z,0
2017-08-14T02:06:26.924Z,0
2017-08-14T02:07:26.949Z,0
2017-08-14T02:08:26.661Z,0
2017-08-14T02:09:26.697Z,0
2017-08-14T02:10:26.718Z,0
2017-08-14T02:11:26.764Z,0
2017-08-14T02:12:26.789Z,0
2017-08-14T02:13:26.808Z,0
2017-08-14T02:14:27.185Z,0
2017-08-14T02:15:26.908Z,0
2017-08-14T02:16:27.236Z,0
2017-08-14T02:17:26.974Z,0
2017-08-14T02:18:26.655Z,0
2017-08-14T02:19:27.463Z,0
2017-08-14T02:20:27.493Z,0
2017-08-14T02:21:27.861Z,0
2017-08-14T02:22:27.552Z,0
2017-08-14T02:23:27.598Z,0
2017-08-14T02:24:27.621Z,0
2017-08-14T02:25:28.425Z,0
2017-08-14T02:26:28.100Z,0
2017-08-14T02:27:28.552Z,0
2017-08-14T02:28:29.051Z,0
2017-08-14T02:29:29.058Z,0
2017-08-14T02:30:29.093Z,0
2017-08-14T02:31:28.815Z,0
2017-08-14T02:32:29.155Z,0
2017-08-14T02:33:28.851Z,0
2017-08-14T02:34:28.277Z,0
2017-08-14T02:35:29.408Z,0
2017-08-14T02:36:29.439Z,0
2017-08-14T02:37:28.840Z,0
2017-08-14T02:38:29.964Z,0
2017-08-14T02:39:29.997Z,0
2017-08-14T02:40:30.021Z,0
2017-08-14T02:41:29.750Z,0
2017-08-14T02:42:29.770Z,0
2017-08-14T02:43:30.113Z,0
2017-08-14T02:44:29.833Z,0
2017-08-14T02:45:30.205Z,0
2017-08-14T02:46:30.225Z,0
2017-08-14T02:47:29.933Z,0
2017-08-14T02:48:30.288Z,0
2017-08-14T02:49:29.687Z,0
2017-08-14T02:50:29.672Z,0
2017-08-14T02:51:30.842Z,0
2017-08-14T02:52:30.878Z,0
2017-08-14T02:53:30.918Z,0
2017-08-14T02:54:30.629Z,0
2017-08-14T02:55:30.976Z,0
2017-08-14T02:56:30.697Z,0
2017-08-14T02:57:30.716Z,0
2017-08-14T02:58:30.740Z,0
2017-08-14T02:59:30.773Z,0
2017-08-14T03:00:31.123Z,0
2017-08-14T03:01:31.328Z,0
2017-08-14T03:02:30.868Z,0
2017-08-14T03:03:31.253Z,0
2017-08-14T03:04:31.277Z,0
2017-08-14T03:05:31.295Z,0
2017-08-14T03:06:31.349Z,0
2017-08-14T03:07:31.363Z,0
2017-08-14T03:08:31.406Z,0
2017-08-14T03:09:31.426Z,0
2017-08-14T03:10:31.249Z,0
2017-08-14T03:11:31.195Z,0
2017-08-14T03:12:31.517Z,0
2017-08-14T03:13:30.925Z,0
2017-08-14T03:14:32.029Z,0
2017-08-14T03:15:31.745Z,0
2017-08-14T03:16:32.223Z,0
2017-08-14T03:17:32.266Z,0
2017-08-14T03:18:33.062Z,0
2017-08-14T03:19:32.453Z,0
2017-08-14T03:20:33.242Z,0
2017-08-14T03:21:33.609Z,0
2017-08-14T03:22:33.011Z,0
2017-08-14T03:23:34.121Z,0
2017-08-14T03:24:33.847Z,0
2017-08-14T03:25:34.159Z,0
2017-08-14T03:26:34.217Z,0
2017-08-14T03:27:34.254Z,0
2017-08-14T03:28:33.989Z,0
2017-08-14T03:29:34.318Z,0
2017-08-14T03:30:34.024Z,0
2017-08-14T03:31:34.394Z,0
2017-08-14T03:32:34.414Z,0
2017-08-14T03:33:34.135Z,0
2017-08-14T03:34:34.169Z,0
2017-08-14T03:35:34.526Z,0
2017-08-14T03:36:34.218Z,0
2017-08-14T03:37:34.604Z,0
2017-08-14T03:38:34.614Z,0
2017-08-14T03:39:34.321Z,0
2017-08-14T03:40:34.362Z,0
2017-08-14T03:41:35.153Z,0
2017-08-14T03:42:35.175Z,5
2017-08-14T03:43:35.206Z,5
2017-08-14T03:44:34.619Z,5
2017-08-14T03:45:35.724Z,5
2017-08-14T03:46:35.426Z,5
2017-08-14T03:47:35.806Z,5
2017-08-14T03:48:35.846Z,5
2017-08-14T03:49:35.870Z,5
2017-08-14T03:50:35.259Z,10
2017-08-14T03:51:36.076Z,10
2017-08-14T03:52:36.083Z,10
2017-08-14T03:53:35.845Z,10
2017-08-14T03:54:36.950Z,10
2017-08-14T03:55:36.370Z,10
2017-08-14T03:56:37.508Z,15
2017-08-14T03:57:37.204Z,15
2017-08-14T03:58:37.550Z,15
2017-08-14T03:59:36.951Z,15
2017-08-14T04:00:37.949Z,15
2017-08-14T04:01:38.035Z,20
2017-08-14T04:02:37.708Z,20
2017-08-14T04:03:38.031Z,20
2017-08-14T04:04:38.065Z,20
2017-08-14T04:05:38.091Z,20
2017-08-14T04:06:37.826Z,20
2017-08-14T04:07:38.482Z,25
2017-08-14T04:08:38.504Z,25
2017-08-14T04:09:38.538Z,25
2017-08-14T04:10:38.215Z,25
2017-08-14T04:11:38.614Z,25
2017-08-14T04:12:38.637Z,30
2017-08-14T04:13:38.661Z,30
2017-08-14T04:14:38.411Z,30
2017-08-14T04:15:38.731Z,30
2017-08-14T04:16:38.459Z,30
2017-08-14T04:17:38.786Z,35
2017-08-14T04:18:38.496Z,35
2017-08-14T04:19:38.862Z,35
2017-08-14T04:20:38.574Z,40
2017-08-14T04:21:38.624Z,40
2017-08-14T04:22:38.963Z,40
2017-08-14T04:23:38.691Z,45
2017-08-14T04:24:39.046Z,45
2017-08-14T04:25:39.059Z,45
2017-08-14T04:26:39.095Z,45
2017-08-14T04:27:38.824Z,50
2017-08-14T04:28:38.560Z,50
2017-08-14T04:29:39.551Z,50
2017-08-14T04:30:39.268Z,55
2017-08-14T04:31:39.612Z,55
2017-08-14T04:32:39.630Z,55
2017-08-14T04:33:39.678Z,60
2017-08-14T04:34:39.695Z,60
2017-08-14T04:35:39.768Z,60
2017-08-14T04:36:39.771Z,65
2017-08-14T04:37:39.821Z,70
2017-08-14T04:38:39.524Z,70
2017-08-14T04:39:40.171Z,75
2017-08-14T04:40:40.194Z,80
2017-08-14T04:41:40.252Z,85
2017-08-14T04:42:40.271Z,90
2017-08-14T04:43:39.995Z,100
2017-08-14T04:44:39.708Z,110
2017-08-14T04:45:40.372Z,115
2017-08-14T04:46:40.699Z,125
2017-08-14T04:47:41.043Z,125
2017-08-14T04:48:41.087Z,130
2017-08-14T04:49:41.106Z,130
2017-08-14T04:50:40.844Z,130
2017-08-14T04:51:41.175Z,135
2017-08-14T04:52:41.210Z,145
2017-08-14T04:53:41.270Z,150
2017-08-14T04:54:41.272Z,150
2017-08-14T04:55:41.313Z,155
2017-08-14T04:56:41.354Z,155
2017-08-14T04:57:41.043Z,160
2017-08-14T04:58:41.398Z,160
2017-08-14T04:59:41.141Z,160
2017-08-14T05:00:41.165Z,165
2017-08-14T05:01:41.950Z,165
2017-08-14T05:02:41.967Z,170
2017-08-14T05:03:41.965Z,175
2017-08-14T05:04:41.985Z,175
2017-08-14T05:05:41.424Z,170
2017-08-14T05:06:41.784Z,170
2017-08-14T05:07:42.467Z,170
2017-08-14T05:08:42.791Z,175
2017-08-14T05:09:43.142Z,180
2017-08-14T05:10:42.857Z,180
2017-08-14T05:11:43.228Z,190
2017-08-14T05:12:42.913Z,195
2017-08-14T05:13:42.968Z,200
2017-08-14T05:14:43.298Z,200
2017-08-14T05:15:43.346Z,200
2017-08-14T05:16:42.437Z,205
2017-08-14T05:17:43.465Z,200
2017-08-14T05:18:43.176Z,195
2017-08-14T05:19:43.225Z,200
2017-08-14T05:20:42.945Z,210
2017-08-14T05:21:43.628Z,225
2017-08-14T05:22:43.948Z,225
2017-08-14T05:23:43.995Z,220
2017-08-14T05:24:44.076Z,225
2017-08-14T05:25:43.744Z,225
2017-08-14T05:26:44.092Z,225
2017-08-14T05:27:43.827Z,230
2017-08-14T05:28:43.869Z,235
2017-08-14T05:29:44.196Z,250
2017-08-14T05:30:44.212Z,275
2017-08-14T05:31:44.262Z,280
2017-08-14T05:32:43.993Z,285
2017-08-14T05:33:43.904Z,285
2017-08-14T05:34:44.353Z,375
2017-08-14T05:35:44.407Z,480
2017-08-14T05:36:44.438Z,550
2017-08-14T05:37:44.144Z,550
2017-08-14T05:38:44.181Z,480
2017-08-14T05:39:44.551Z,385
2017-08-14T05:40:44.572Z,345
2017-08-14T05:41:44.348Z,395
2017-08-14T05:42:44.661Z,515
2017-08-14T05:43:44.713Z,415
2017-08-14T05:44:44.414Z,320
2017-08-14T05:45:44.454Z,325
2017-08-14T05:46:44.794Z,375
2017-08-14T05:47:44.490Z,370
2017-08-14T05:48:44.547Z,300
2017-08-14T05:49:44.894Z,290
2017-08-14T05:50:44.623Z,305
2017-08-14T05:51:44.366Z,420
2017-08-14T05:52:44.758Z,660
2017-08-14T05:53:45.760Z,805
2017-08-14T05:54:45.484Z,720
2017-08-14T05:55:45.800Z,555
2017-08-14T05:56:45.240Z,380
2017-08-14T05:57:45.942Z,320
2017-08-14T05:58:45.973Z,300
2017-08-14T05:59:45.698Z,355
2017-08-14T06:00:45.473Z,395
2017-08-14T06:01:46.168Z,310
2017-08-14T06:02:45.895Z,315
2017-08-14T06:03:46.940Z,330
2017-08-14T06:04:46.661Z,335
2017-08-14T06:05:46.347Z,325
2017-08-14T06:06:46.723Z,330
2017-08-14T06:07:46.746Z,340
2017-08-14T06:08:46.770Z,355
2017-08-14T06:09:46.828Z,405
2017-08-14T06:10:46.882Z,405
2017-08-14T06:11:47.215Z,545
2017-08-14T06:12:46.960Z,740
2017-08-14T06:13:46.990Z,820
2017-08-14T06:14:46.930Z,835
2017-08-14T06:15:47.052Z,1030
2017-08-14T06:16:47.385Z,1105
2017-08-14T06:17:47.472Z,1220
2017-08-14T06:18:47.481Z,1270
2017-08-14T06:19:47.500Z,1235
2017-08-14T06:20:47.525Z,1235
2017-08-14T06:21:47.569Z,1310
2017-08-14T06:22:47.605Z,1270
2017-08-14T06:23:47.655Z,1175
2017-08-14T06:24:47.102Z,1395
2017-08-14T06:25:47.805Z,1450
2017-08-14T06:26:48.457Z,1395
2017-08-14T06:27:48.173Z,1320
2017-08-14T06:28:48.600Z,1455
2017-08-14T06:29:48.572Z,1455
2017-08-14T06:30:48.597Z,1495
2017-08-14T06:31:48.367Z,1535
2017-08-14T06:32:48.682Z,1570
2017-08-14T06:33:48.090Z,1590
2017-08-14T06:34:48.826Z,1595
2017-08-14T06:35:49.125Z,1620
2017-08-14T06:36:49.162Z,1635
2017-08-14T06:37:48.611Z,1665
2017-08-14T06:38:49.306Z,1660
2017-08-14T06:39:49.305Z,1625
2017-08-14T06:40:49.067Z,1590
2017-08-14T06:41:49.720Z,1610
2017-08-14T06:42:49.775Z,1670
2017-08-14T06:43:49.491Z,1685
2017-08-14T06:44:49.538Z,1630
2017-08-14T06:45:49.579Z,1520
2017-08-14T06:46:49.588Z,1540
2017-08-14T06:47:49.967Z,1620
2017-08-14T06:48:49.686Z,1685
2017-08-14T06:49:49.817Z,1750
2017-08-14T06:50:49.439Z,1720
2017-08-14T06:51:50.134Z,1730
2017-08-14T06:52:50.166Z,1715
2017-08-14T06:53:49.877Z,1700
2017-08-14T06:54:49.625Z,1745
2017-08-14T06:55:50.279Z,1780
2017-08-14T06:56:50.707Z,1690
2017-08-14T06:57:50.381Z,1520
2017-08-14T06:58:50.426Z,1470
2017-08-14T06:59:50.784Z,1690
2017-08-14T07:00:50.492Z,1790
2017-08-14T07:01:51.112Z,1760
2017-08-14T07:02:50.329Z,1790
2017-08-14T07:03:50.706Z,1800
2017-08-14T07:04:51.679Z,1815
2017-08-14T07:05:51.735Z,1855
2017-08-14T07:06:51.763Z,1855
2017-08-14T07:07:51.496Z,1820
2017-08-14T07:08:51.216Z,1845
2017-08-14T07:09:51.945Z,1775
2017-08-14T07:10:52.003Z,1845
2017-08-14T07:11:51.997Z,1900
2017-08-14T07:12:52.085Z,1795
2017-08-14T07:13:51.766Z,1810
2017-08-14T07:14:51.206Z,1910
2017-08-14T07:15:51.878Z,1885
2017-08-14T07:16:52.232Z,1915
2017-08-14T07:17:51.983Z,1900
2017-08-14T07:18:51.999Z,1870
2017-08-14T07:19:52.394Z,1920
2017-08-14T07:20:51.793Z,1920
2017-08-14T07:21:52.499Z,1930
2017-08-14T07:22:53.238Z,1920
2017-08-14T07:23:53.228Z,1960
2017-08-14T07:24:53.281Z,1960
2017-08-14T07:25:53.012Z,1950
2017-08-14T07:26:53.364Z,1950
2017-08-14T07:27:52.799Z,1985
2017-08-14T07:28:53.506Z,2020
2017-08-14T07:29:53.847Z,1995
2017-08-14T07:30:53.577Z,1995
2017-08-14T07:31:53.595Z,2015
2017-08-14T07:32:53.327Z,1980
2017-08-14T07:33:54.317Z,1995
2017-08-14T07:34:54.046Z,2035
2017-08-14T07:35:54.418Z,2015
2017-08-14T07:36:54.136Z,2020
2017-08-14T07:37:54.160Z,2055
2017-08-14T07:38:54.534Z,2085
2017-08-14T07:39:54.571Z,2125
2017-08-14T07:40:54.611Z,1975
2017-08-14T07:41:54.641Z,1880
2017-08-14T07:42:54.379Z,2085
2017-08-14T07:43:54.419Z,2120
2017-08-14T07:44:54.496Z,2110
2017-08-14T07:45:54.830Z,2155
2017-08-14T07:46:54.551Z,2090
2017-08-14T07:47:54.905Z,2145
2017-08-14T07:48:55.557Z,2110
2017-08-14T07:49:55.265Z,2055
2017-08-14T07:50:55.642Z,2105
2017-08-14T07:51:54.779Z,2125
2017-08-14T07:52:55.138Z,2125
2017-08-14T07:53:55.823Z,2100
2017-08-14T07:54:55.833Z,2135
2017-08-14T07:55:55.912Z,2165
2017-08-14T07:56:56.250Z,2175
2017-08-14T07:57:56.295Z,2235
2017-08-14T07:58:56.358Z,2235
2017-08-14T07:59:56.179Z,2235
2017-08-14T08:00:55.832Z,2225
2017-08-14T08:01:56.584Z,2275
2017-08-14T08:02:56.572Z,2330
2017-08-14T08:03:56.635Z,2310
2017-08-14T08:04:56.981Z,2225
2017-08-14T08:05:56.380Z,2280
2017-08-14T08:06:57.076Z,2205
2017-08-14T08:07:57.115Z,2215
2017-08-14T08:08:57.168Z,2215
2017-08-14T08:09:57.201Z,2200
2017-08-14T08:10:56.946Z,2265
2017-08-14T08:11:57.300Z,2235
2017-08-14T08:12:57.337Z,2145
2017-08-14T08:13:57.074Z,2240
2017-08-14T08:14:57.124Z,2350
2017-08-14T08:15:57.176Z,2240
2017-08-14T08:16:57.209Z,2320
2017-08-14T08:17:58.192Z,2450
2017-08-14T08:18:58.223Z,2475
2017-08-14T08:19:58.003Z,2500
2017-08-14T08:20:58.320Z,2445
2017-08-14T08:21:57.148Z,2390
2017-08-14T08:22:58.098Z,2450
2017-08-14T08:23:58.472Z,2490
2017-08-14T08:24:58.212Z,2485
2017-08-14T08:25:58.561Z,2465
2017-08-14T08:26:57.986Z,2445
2017-08-14T08:27:58.067Z,2225
2017-08-14T08:28:59.066Z,2535
2017-08-14T08:29:58.810Z,2575
2017-08-14T08:30:59.150Z,2525
2017-08-14T08:31:59.185Z,2520
2017-08-14T08:32:58.634Z,2475
2017-08-14T08:33:59.650Z,2510
2017-08-14T08:34:59.646Z,2485
2017-08-14T08:35:59.734Z,2525
2017-08-14T08:36:59.762Z,2580
2017-08-14T08:37:59.515Z,2625
2017-08-14T08:38:59.850Z,2665
2017-08-14T08:39:59.892Z,2635
2017-08-14T08:40:59.638Z,2615
2017-08-14T08:41:59.683Z,885
2017-08-14T08:42:59.730Z,1635
2017-08-14T08:43:59.782Z,1745
2017-08-14T08:45:00.152Z,1895
2017-08-14T08:46:00.180Z,2455
2017-08-14T08:47:00.228Z,2490
2017-08-14T08:47:59.628Z,1905
2017-08-14T08:49:00.715Z,2460
2017-08-14T08:50:00.382Z,2670
2017-08-14T08:51:00.408Z,2700
2017-08-14T08:52:00.455Z,1990
2017-08-14T08:53:00.504Z,2210
2017-08-14T08:54:00.551Z,1335
2017-08-14T08:55:00.575Z,2895
2017-08-14T08:56:00.312Z,1665
2017-08-14T08:57:01.308Z,1205
2017-08-14T08:58:01.331Z,2815
2017-08-14T08:59:01.417Z,2685
2017-08-14T09:00:01.448Z,2775
2017-08-14T09:01:01.159Z,2820
2017-08-14T09:02:01.781Z,2880
2017-08-14T09:03:01.277Z,2905
2017-08-14T09:04:01.614Z,2915
2017-08-14T09:05:01.679Z,2870
2017-08-14T09:06:01.705Z,2755
2017-08-14T09:07:01.764Z,2650
2017-08-14T09:08:01.831Z,2775
2017-08-14T09:09:01.844Z,2845
2017-08-14T09:10:01.916Z,2710
2017-08-14T09:11:01.325Z,2685
2017-08-14T09:12:02.035Z,2865
2017-08-14T09:13:02.074Z,2760
2017-08-14T09:14:02.122Z,2715
2017-08-14T09:15:02.458Z,2700
2017-08-14T09:16:02.272Z,2760
2017-08-14T09:17:01.629Z,2955
2017-08-14T09:18:02.626Z,3050
2017-08-14T09:19:02.349Z,1315
2017-08-14T09:20:02.415Z,1675
2017-08-14T09:21:02.779Z,1880
2017-08-14T09:22:02.513Z,735
2017-08-14T09:23:02.574Z,750
2017-08-14T09:24:02.578Z,835
2017-08-14T09:25:02.639Z,1130
2017-08-14T09:26:02.669Z,2665
2017-08-14T09:27:03.051Z,2810
2017-08-14T09:28:02.782Z,2680
2017-08-14T09:29:02.843Z,2780
2017-08-14T09:30:03.682Z,2840
2017-08-14T09:31:03.278Z,2895
2017-08-14T09:32:03.624Z,2935
2017-08-14T09:33:03.426Z,3100
2017-08-14T09:34:03.413Z,3030
2017-08-14T09:35:03.551Z,3020
2017-08-14T09:36:04.505Z,3075
2017-08-14T09:37:04.553Z,3115
2017-08-14T09:38:04.342Z,3120
2017-08-14T09:39:04.361Z,3255
2017-08-14T09:40:04.106Z,3400
2017-08-14T09:41:04.457Z,3525
2017-08-14T09:42:04.486Z,3570
2017-08-14T09:43:04.552Z,3380
2017-08-14T09:44:04.368Z,3320
2017-08-14T09:45:04.669Z,3280
2017-08-14T09:46:04.078Z,3130
2017-08-14T09:47:05.002Z,3095
2017-08-14T09:48:04.823Z,3080
2017-08-14T09:49:05.186Z,2980
2017-08-14T09:50:04.686Z,3095
2017-08-14T09:51:05.383Z,3235
2017-08-14T09:52:05.439Z,3125
2017-08-14T09:53:05.158Z,2935
2017-08-14T09:54:05.880Z,2940
2017-08-14T09:55:06.182Z,2930
2017-08-14T09:56:05.598Z,2815
2017-08-14T09:57:06.251Z,2785
2017-08-14T09:58:06.092Z,2420
2017-08-14T09:59:06.588Z,2490
2017-08-14T10:00:06.460Z,2430
2017-08-14T10:01:06.185Z,2275
2017-08-14T10:02:06.014Z,1475
2017-08-14T10:03:06.578Z,635
2017-08-14T10:04:06.043Z,600
2017-08-14T10:05:06.506Z,555
2017-08-14T10:06:05.847Z,540
2017-08-14T10:07:06.267Z,525
2017-08-14T10:08:07.390Z,530
2017-08-14T10:09:07.823Z,600
2017-08-14T10:10:07.523Z,1325
2017-08-14T10:11:07.752Z,1875
2017-08-14T10:12:07.465Z,1700
2017-08-14T10:13:07.223Z,1635
2017-08-14T10:14:07.669Z,1545
2017-08-14T10:15:08.182Z,1005
2017-08-14T10:16:07.723Z,1340
2017-08-14T10:17:08.039Z,1345
2017-08-14T10:18:08.132Z,1290
2017-08-14T10:19:08.137Z,1235
2017-08-14T10:20:08.370Z,1255
2017-08-14T10:21:07.356Z,1265
2017-08-14T10:22:07.386Z,1125
2017-08-14T10:23:07.761Z,680
2017-08-14T10:24:08.746Z,615
2017-08-14T10:25:08.737Z,1060
2017-08-14T10:26:08.885Z,730
2017-08-14T10:27:09.124Z,835
2017-08-14T10:28:08.967Z,605
2017-08-14T10:29:08.975Z,1035
2017-08-14T10:30:09.236Z,1065
2017-08-14T10:31:08.726Z,1105
2017-08-14T10:32:09.150Z,1070
2017-08-14T10:33:09.153Z,1025
2017-08-14T10:34:08.898Z,1040
2017-08-14T10:35:09.345Z,1030
2017-08-14T10:36:09.281Z,1030
2017-08-14T10:37:09.038Z,585
2017-08-14T10:38:09.062Z,540
2017-08-14T10:39:09.121Z,495
2017-08-14T10:40:09.178Z,540
2017-08-14T10:41:09.484Z,980
2017-08-14T10:42:09.249Z,990
2017-08-14T10:43:09.580Z,995
2017-08-14T10:44:09.618Z,1020
2017-08-14T10:45:09.483Z,1030
2017-08-14T10:46:10.375Z,980
2017-08-14T10:47:09.795Z,1000
2017-08-14T10:48:10.099Z,960
2017-08-14T10:49:10.390Z,935
2017-08-14T10:50:09.660Z,940
2017-08-14T10:51:10.317Z,910
2017-08-14T10:52:10.055Z,900
2017-08-14T10:53:10.734Z,910
2017-08-14T10:54:10.773Z,815
2017-08-14T10:55:10.204Z,805
2017-08-14T10:56:10.919Z,790
2017-08-14T10:57:10.603Z,795
2017-08-14T10:58:10.506Z,930
2017-08-14T10:59:11.486Z,970
2017-08-14T11:00:11.795Z,965
2017-08-14T11:01:11.581Z,970
2017-08-14T11:02:11.394Z,930
2017-08-14T11:03:11.757Z,865
2017-08-14T11:04:12.415Z,845
2017-08-14T11:05:12.159Z,810
2017-08-14T11:06:12.198Z,790
2017-08-14T11:07:12.235Z,380
2017-08-14T11:08:12.580Z,415
2017-08-14T11:09:12.322Z,410
2017-08-14T11:10:12.002Z,390
2017-08-14T11:11:12.102Z,390
2017-08-14T11:12:12.967Z,410
2017-08-14T11:13:13.148Z,500
2017-08-14T11:14:13.184Z,435
2017-08-14T11:15:12.882Z,390
2017-08-14T11:16:12.696Z,445
2017-08-14T11:17:13.078Z,335
2017-08-14T11:18:13.539Z,330
2017-08-14T11:19:14.610Z,330
2017-08-14T11:20:14.306Z,325
2017-08-14T11:21:14.351Z,340
2017-08-14T11:22:14.390Z,355
2017-08-14T11:23:14.734Z,355
2017-08-14T11:24:14.476Z,390
2017-08-14T11:25:14.491Z,400
2017-08-14T11:26:14.558Z,415
2017-08-14T11:27:14.890Z,425
2017-08-14T11:28:14.936Z,435
2017-08-14T11:29:14.672Z,520
2017-08-14T11:30:14.684Z,560
2017-08-14T11:31:15.335Z,555
2017-08-14T11:32:15.069Z,490
2017-08-14T11:33:15.423Z,450
2017-08-14T11:34:15.447Z,425
2017-08-14T11:35:15.605Z,415
2017-08-14T11:36:14.903Z,415
2017-08-14T11:37:15.563Z,425
2017-08-14T11:38:15.325Z,485
2017-08-14T11:39:15.642Z,520
2017-08-14T11:40:16.031Z,515
2017-08-14T11:41:16.300Z,520
2017-08-14T11:42:15.769Z,485
2017-08-14T11:43:16.164Z,445
2017-08-14T11:44:16.197Z,430
2017-08-14T11:45:15.917Z,430
2017-08-14T11:46:16.254Z,415
2017-08-14T11:47:16.295Z,385
2017-08-14T11:48:16.252Z,370
2017-08-14T11:49:15.730Z,370
2017-08-14T11:50:16.764Z,395
2017-08-14T11:51:16.748Z,375
2017-08-14T11:52:16.803Z,390
2017-08-14T11:53:16.832Z,425
2017-08-14T11:54:16.565Z,450
2017-08-14T11:55:16.912Z,450
2017-08-14T11:56:16.640Z,430
2017-08-14T11:57:16.993Z,400
2017-08-14T11:58:17.087Z,390
2017-08-14T11:59:16.781Z,380
2017-08-14T12:00:17.129Z,375
2017-08-14T12:01:16.905Z,355
2017-08-14T12:02:16.912Z,345
2017-08-14T12:03:16.937Z,335
2017-08-14T12:04:16.967Z,305
2017-08-14T12:05:16.992Z,305
2017-08-14T12:06:17.383Z,295
2017-08-14T12:07:17.711Z,295
2017-08-14T12:08:17.448Z,305
2017-08-14T12:09:17.799Z,330
2017-08-14T12:10:17.640Z,335
2017-08-14T12:11:17.876Z,325
2017-08-14T12:12:17.932Z,310
2017-08-14T12:13:17.642Z,300
2017-08-14T12:14:17.999Z,290
2017-08-14T12:15:18.040Z,290
2017-08-14T12:16:17.431Z,290
2017-08-14T12:17:18.452Z,300
2017-08-14T12:18:18.155Z,315
2017-08-14T12:19:17.865Z,325
2017-08-14T12:20:18.548Z,340
2017-08-14T12:21:17.646Z,360
2017-08-14T12:22:18.636Z,385
2017-08-14T12:23:18.031Z,405
2017-08-14T12:24:18.714Z,420
2017-08-14T12:25:18.729Z,415
2017-08-14T12:26:19.423Z,410
2017-08-14T12:27:18.806Z,400
2017-08-14T12:28:19.801Z,365
2017-08-14T12:29:19.515Z,365
2017-08-14T12:30:19.875Z,355
2017-08-14T12:31:18.998Z,340
2017-08-14T12:32:19.945Z,330
2017-08-14T12:33:19.675Z,315
2017-08-14T12:34:20.329Z,300
2017-08-14T12:35:19.851Z,290
2017-08-14T12:36:20.401Z,275
2017-08-14T12:37:20.447Z,285
2017-08-14T12:38:20.473Z,265
2017-08-14T12:39:20.512Z,265
2017-08-14T12:40:20.552Z,270
2017-08-14T12:41:20.335Z,270
2017-08-14T12:42:20.636Z,265
2017-08-14T12:43:20.677Z,260
2017-08-14T12:44:20.717Z,255
2017-08-14T12:45:20.905Z,255
2017-08-14T12:46:20.782Z,260
2017-08-14T12:47:20.538Z,275
2017-08-14T12:48:20.276Z,295
2017-08-14T12:49:20.662Z,315
2017-08-14T12:50:21.665Z,305
2017-08-14T12:51:21.696Z,290
2017-08-14T12:52:21.736Z,290
2017-08-14T12:53:21.761Z,300
2017-08-14T12:54:21.477Z,320
2017-08-14T12:55:21.541Z,335
2017-08-14T12:56:21.903Z,305
2017-08-14T12:57:21.577Z,300
2017-08-14T12:58:21.970Z,305
2017-08-14T12:59:21.672Z,320
2017-08-14T13:00:22.153Z,300
2017-08-14T13:01:21.787Z,285
2017-08-14T13:02:22.460Z,275
2017-08-14T13:03:22.161Z,250
2017-08-14T13:04:21.570Z,245
2017-08-14T13:05:22.234Z,240
2017-08-14T13:06:22.293Z,255
2017-08-14T13:07:22.967Z,250
2017-08-14T13:08:22.969Z,245
2017-08-14T13:09:23.018Z,235
2017-08-14T13:10:23.086Z,230
2017-08-14T13:11:23.069Z,210
2017-08-14T13:12:23.133Z,220
2017-08-14T13:13:23.200Z,215
2017-08-14T13:14:22.909Z,215
2017-08-14T13:15:22.947Z,225
2017-08-14T13:16:22.965Z,230
2017-08-14T13:17:22.996Z,230
2017-08-14T13:18:23.077Z,235
2017-08-14T13:19:23.403Z,230
2017-08-14T13:20:23.458Z,240
2017-08-14T13:21:23.173Z,245
2017-08-14T13:22:23.516Z,250
2017-08-14T13:23:23.263Z,255
2017-08-14T13:24:23.603Z,275
2017-08-14T13:25:23.303Z,285
2017-08-14T13:26:23.668Z,290
2017-08-14T13:27:23.717Z,285
2017-08-14T13:28:22.849Z,285
2017-08-14T13:29:23.827Z,270
2017-08-14T13:30:23.562Z,265
2017-08-14T13:31:23.903Z,240
2017-08-14T13:32:23.643Z,230
2017-08-14T13:33:23.380Z,230
2017-08-14T13:34:23.756Z,230
2017-08-14T13:35:24.779Z,230
2017-08-14T13:36:24.454Z,235
2017-08-14T13:37:24.823Z,225
2017-08-14T13:38:24.846Z,210
2017-08-14T13:39:24.880Z,210
2017-08-14T13:40:24.925Z,205
2017-08-14T13:41:24.365Z,200
2017-08-14T13:42:25.047Z,205
2017-08-14T13:43:25.075Z,210
2017-08-14T13:44:25.443Z,220
2017-08-14T13:45:25.455Z,230
2017-08-14T13:46:24.866Z,235
2017-08-14T13:47:25.863Z,230
2017-08-14T13:48:25.899Z,235
2017-08-14T13:49:25.940Z,240
2017-08-14T13:50:25.356Z,235
2017-08-14T13:51:26.037Z,245
2017-08-14T13:52:26.683Z,255
2017-08-14T13:53:26.114Z,265
2017-08-14T13:54:26.504Z,270
2017-08-14T13:55:26.876Z,270
2017-08-14T13:56:27.245Z,265